Time;durP1;ratioP1;P1;durP2;ratioP2;P2;SDS_P1;SDS_P2;PMS_P1;PMS_P2;Temp;Humidity;BMP_temperature;BMP_pressure;BME280_temperature;BME280_humidity;BME280_pressure;Samples;Min_cycle;Max_cycle;Signal;HPM_P1;HPM_P2
2023/03/02 00:02:02;;;;;;;21.15;8.68;;;;;;;3.27;100.00;102017.16;4928128;29;20061;-72
2023/03/02 00:04:35;;;;;;;21.95;8.25;;;;;;;3.27;100.00;102017.94;4943866;28;20051;-71
2023/03/02 00:07:04;;;;;;;19.33;8.25;;;;;;;3.25;100.00;102020.19;4941748;28;21272;-71
2023/03/02 00:09:31;;;;;;;20.95;8.65;;;;;;;3.15;100.00;102006.81;4942525;28;20059;-72
2023/03/02 00:11:58;;;;;;;22.10;8.43;;;;;;;3.16;100.00;102016.63;4944389;28;20054;-71
2023/03/02 00:14:24;;;;;;;21.58;8.30;;;;;;;3.13;100.00;102021.94;4941086;28;20061;-71
2023/03/02 00:16:51;;;;;;;20.85;8.15;;;;;;;3.14;100.00;102018.84;4942568;28;20051;-72
2023/03/02 00:19:17;;;;;;;19.25;7.20;;;;;;;3.06;100.00;102008.69;4941548;28;20062;-72
2023/03/02 00:21:44;;;;;;;22.80;8.88;;;;;;;3.07;100.00;102009.50;4946027;28;20059;-71
2023/03/02 00:24:10;;;;;;;19.30;8.52;;;;;;;3.05;100.00;102009.81;4945067;28;20078;-71
2023/03/02 00:26:37;;;;;;;20.38;7.95;;;;;;;3.05;100.00;102015.28;4945948;28;20055;-72
2023/03/02 00:29:03;;;;;;;19.55;8.15;;;;;;;2.99;100.00;102007.53;4945296;28;20103;-72
2023/03/02 00:31:30;;;;;;;21.63;8.43;;;;;;;3.01;100.00;102011.56;4944997;28;20143;-73
2023/03/02 00:33:57;;;;;;;21.75;8.88;;;;;;;2.97;100.00;102007.84;4937925;28;20094;-72
2023/03/02 00:36:23;;;;;;;22.63;7.90;;;;;;;2.98;100.00;102022.31;4937217;28;20411;-72
2023/03/02 00:38:51;;;;;;;21.90;8.35;;;;;;;2.94;100.00;102015.88;4945980;28;20051;-72
2023/03/02 00:41:20;;;;;;;20.27;7.88;;;;;;;2.92;100.00;102016.19;4940840;28;20057;-72
2023/03/02 00:43:47;;;;;;;19.75;8.50;;;;;;;2.88;100.00;102004.28;4946586;28;20521;-69
2023/03/02 00:46:17;;;;;;;21.02;8.95;;;;;;;2.85;100.00;102013.09;4945873;28;20051;-72
2023/03/02 00:48:44;;;;;;;20.58;8.05;;;;;;;2.78;100.00;102004.56;4943354;28;20046;-71
2023/03/02 00:51:11;;;;;;;21.42;9.02;;;;;;;2.74;100.00;101998.88;4945878;28;20070;-72
2023/03/02 00:53:38;;;;;;;20.85;8.07;;;;;;;2.69;100.00;102011.88;4947880;28;20050;-70
2023/03/02 00:56:06;;;;;;;21.55;8.48;;;;;;;2.64;100.00;102012.03;4945393;28;20074;-70
2023/03/02 00:58:33;;;;;;;20.20;7.40;;;;;;;2.57;100.00;102006.22;4945426;28;20047;-70
2023/03/02 01:01:09;;;;;;;19.80;7.80;;;;;;;2.52;100.00;101998.13;4943717;28;20055;-71
2023/03/02 01:03:36;;;;;;;17.73;7.22;;;;;;;2.48;100.00;101997.97;4945469;28;20083;-71
2023/03/02 01:06:03;;;;;;;20.83;7.85;;;;;;;2.42;100.00;101995.66;4945755;28;20050;-71
2023/03/02 01:08:30;;;;;;;21.33;8.35;;;;;;;2.36;100.00;101994.16;4945588;28;20053;-72
2023/03/02 01:11:00;;;;;;;15.77;6.75;;;;;;;2.27;100.00;101991.38;4946044;28;20173;-72
2023/03/02 01:13:27;;;;;;;19.73;8.15;;;;;;;2.21;100.00;101991.81;4948949;28;20765;-73
2023/03/02 01:16:01;;;;;;;21.60;8.95;;;;;;;2.17;100.00;101999.81;4945734;28;20054;-72
2023/03/02 01:18:28;;;;;;;21.20;7.93;;;;;;;2.15;100.00;101993.06;4928733;28;20055;-70
2023/03/02 01:21:04;;;;;;;18.77;7.80;;;;;;;2.16;100.00;101991.97;4949403;28;20058;-70
2023/03/02 01:23:31;;;;;;;20.17;8.32;;;;;;;2.16;100.00;101995.47;4948485;28;20055;-71
2023/03/02 01:25:57;;;;;;;18.77;7.57;;;;;;;2.17;100.00;101988.09;4948531;28;20144;-71
2023/03/02 01:28:24;;;;;;;19.02;7.63;;;;;;;2.19;100.00;101991.31;4949457;28;20051;-72
2023/03/02 01:30:50;;;;;;;18.58;7.63;;;;;;;2.16;100.00;101987.28;4948107;28;20051;-70
2023/03/02 01:33:17;;;;;;;18.20;7.53;;;;;;;2.17;100.00;101977.97;4948495;28;20126;-69
2023/03/02 01:35:45;;;;;;;23.02;8.02;;;;;;;2.21;100.00;101983.63;4949128;28;20059;-70
2023/03/02 01:38:12;;;;;;;19.63;8.10;;;;;;;2.25;100.00;101985.44;4949021;28;20057;-71
2023/03/02 01:40:40;;;;;;;18.63;7.68;;;;;;;2.25;100.00;101979.16;4949563;28;20166;-71
2023/03/02 01:43:12;;;;;;;17.73;7.32;;;;;;;2.23;100.00;101982.19;4949004;28;20051;-72
2023/03/02 01:45:47;;;;;;;22.88;8.65;;;;;;;2.27;100.00;101982.38;4948576;28;20542;-74
2023/03/02 01:48:17;;;;;;;19.15;8.00;;;;;;;2.27;100.00;101985.91;4942924;28;20047;-70
2023/03/02 01:50:44;;;;;;;19.77;7.95;;;;;;;2.26;100.00;101980.78;4946935;28;20061;-70
2023/03/02 01:53:14;;;;;;;20.80;8.10;;;;;;;2.25;100.00;101979.97;4948401;28;20541;-71
2023/03/02 01:55:43;;;;;;;15.98;6.30;;;;;;;2.26;100.00;101984.31;4948086;28;20581;-72
2023/03/02 01:58:12;;;;;;;22.38;7.38;;;;;;;2.26;100.00;101978.06;4941883;28;20051;-71
2023/03/02 02:00:40;;;;;;;16.50;7.40;;;;;;;2.22;100.00;101974.31;4948786;28;20657;-71
2023/03/02 02:03:22;;;;;;;19.80;7.40;;;;;;;2.23;100.00;101974.00;4947382;28;20059;-70
2023/03/02 02:06:07;;;;;;;17.70;7.30;;;;;;;2.26;100.00;101972.59;4947261;28;20047;-71
2023/03/02 02:08:36;;;;;;;17.25;6.70;;;;;;;2.24;100.00;101966.63;4944731;28;20047;-71
2023/03/02 02:11:02;;;;;;;19.40;7.40;;;;;;;2.23;100.00;101963.06;4947659;28;20129;-72
2023/03/02 02:13:29;;;;;;;21.63;8.07;;;;;;;2.23;100.00;101956.81;4946561;28;20079;-72
2023/03/02 02:15:56;;;;;;;18.20;7.72;;;;;;;2.21;100.00;101959.88;4948420;28;20051;-71
2023/03/02 02:18:22;;;;;;;19.88;7.65;;;;;;;2.21;100.00;101959.88;4948116;28;20047;-71
2023/03/02 02:20:52;;;;;;;21.80;7.97;;;;;;;2.25;100.00;101960.03;4948027;28;20070;-71
2023/03/02 02:23:38;;;;;;;18.35;7.70;;;;;;;2.21;100.00;101956.31;4949244;28;20072;-71
2023/03/02 02:26:25;;;;;;;;;;;;;;;2.20;100.00;101943.78;4947745;28;20399;-71
2023/03/02 02:29:12;;;;;;;18.63;8.02;;;;;;;2.16;100.00;101946.31;4945879;28;19926;-72
2023/03/02 02:31:44;;;;;;;21.73;8.15;;;;;;;2.13;100.00;101946.16;4944243;28;20073;-71
2023/03/02 02:34:21;;;;;;;21.30;7.85;;;;;;;2.15;100.00;101950.19;4946455;28;20137;-71
2023/03/02 02:36:50;;;;;;;20.17;7.78;;;;;;;2.13;100.00;101948.88;4947559;28;20062;-71
2023/03/02 02:39:27;;;;;;;16.92;6.82;;;;;;;2.11;100.00;101938.28;4947821;28;20047;-70
2023/03/02 02:41:58;;;;;;;17.63;5.93;;;;;;;2.11;100.00;101932.00;4948115;28;20044;-70
2023/03/02 02:44:24;;;;;;;18.13;7.85;;;;;;;2.08;100.00;101929.88;4947401;28;20054;-71
2023/03/02 02:46:51;;;;;;;18.90;7.50;;;;;;;2.03;100.00;101928.09;4946946;28;20059;-71
2023/03/02 02:49:28;;;;;;;16.90;6.00;;;;;;;2.03;100.00;101930.03;4947727;28;20043;-71
2023/03/02 02:51:54;;;;;;;20.02;6.47;;;;;;;2.04;100.00;101932.44;4946674;28;20051;-72
2023/03/02 02:54:22;;;;;;;19.40;7.18;;;;;;;2.03;100.00;101932.75;4948257;28;20039;-72
2023/03/02 02:56:50;;;;;;;16.40;6.78;;;;;;;2.02;100.00;101925.66;4945557;28;20584;-74
2023/03/02 02:59:23;;;;;;;19.55;6.90;;;;;;;2.02;100.00;101923.75;4948039;28;20053;-72
2023/03/02 03:01:51;;;;;;;18.02;7.55;;;;;;;2.02;100.00;101931.94;4946066;28;20089;-71
2023/03/02 03:04:20;;;;;;;17.35;7.57;;;;;;;2.03;100.00;101930.81;4947105;28;20401;-71
2023/03/02 03:06:50;;;;;;;19.13;7.00;;;;;;;2.02;100.00;101934.66;4947819;28;20055;-72
2023/03/02 03:09:16;;;;;;;20.33;6.45;;;;;;;2.02;100.00;101933.84;4947638;28;20502;-71
2023/03/02 03:11:49;;;;;;;18.23;6.82;;;;;;;2.01;100.00;101933.06;4947870;28;20062;-71
2023/03/02 03:14:19;;;;;;;20.30;7.20;;;;;;;2.00;100.00;101936.09;4964202;28;20561;-71
2023/03/02 03:16:47;;;;;;;18.17;7.10;;;;;;;1.98;100.00;101935.59;4951371;28;20051;-73
2023/03/02 03:19:17;;;;;;;17.73;7.05;;;;;;;1.97;100.00;101934.00;4953958;28;20045;-71
2023/03/02 03:21:44;;;;;;;17.73;6.97;;;;;;;1.95;100.00;101945.22;4960854;28;20569;-72
2023/03/02 03:24:11;;;;;;;15.85;6.50;;;;;;;1.95;100.00;101939.75;4964437;28;20049;-71
2023/03/02 03:26:37;;;;;;;16.20;7.05;;;;;;;1.93;100.00;101933.00;4963937;28;20421;-72
2023/03/02 03:29:04;;;;;;;12.88;5.80;;;;;;;1.85;100.00;101931.00;4964943;28;20561;-71
2023/03/02 03:31:31;;;;;;;20.23;7.85;;;;;;;1.79;100.00;101924.06;4959802;28;20046;-71
2023/03/02 03:33:59;;;;;;;18.10;6.75;;;;;;;1.81;100.00;101935.47;4957103;28;20059;-72
2023/03/02 03:36:29;;;;;;;18.13;7.20;;;;;;;1.75;100.00;101931.25;4956144;28;20541;-72
2023/03/02 03:38:57;;;;;;;20.90;6.57;;;;;;;1.79;100.00;101933.03;4955334;28;20051;-70
2023/03/02 03:41:25;;;;;;;21.42;7.25;;;;;;;1.79;100.00;101935.00;4959119;28;20047;-71
2023/03/02 03:43:52;;;;;;;19.92;7.88;;;;;;;1.76;100.00;101932.88;4956299;28;20051;-71
2023/03/02 03:46:19;;;;;;;17.35;7.13;;;;;;;1.72;100.00;101934.63;4954282;28;20047;-71
2023/03/02 03:48:45;;;;;;;18.00;6.78;;;;;;;1.72;100.00;101937.34;4951494;28;20082;-72
2023/03/02 03:51:12;;;;;;;21.63;6.57;;;;;;;1.69;100.00;101932.50;4955209;28;20055;-70
2023/03/02 03:53:38;;;;;;;16.00;6.57;;;;;;;1.70;100.00;101931.38;4957451;28;20055;-72
2023/03/02 03:56:06;;;;;;;16.60;6.80;;;;;;;1.69;100.00;101943.41;4959693;28;20062;-70
2023/03/02 03:58:32;;;;;;;22.95;7.55;;;;;;;1.70;100.00;101936.84;4953091;28;20051;-72
2023/03/02 04:00:59;;;;;;;17.42;7.10;;;;;;;1.63;100.00;101928.28;4953615;28;20420;-70
2023/03/02 04:03:26;;;;;;;16.52;6.38;;;;;;;1.68;100.00;101941.78;4958493;28;20082;-70
2023/03/02 04:05:53;;;;;;;18.35;7.15;;;;;;;1.70;100.00;101948.56;4949854;28;20058;-71
2023/03/02 04:08:20;;;;;;;17.20;6.93;;;;;;;1.68;100.00;101936.31;4952589;28;20074;-70
2023/03/02 04:10:46;;;;;;;19.75;6.95;;;;;;;1.74;100.00;101940.53;4955943;28;20057;-68
2023/03/02 04:13:13;;;;;;;15.93;6.63;;;;;;;1.74;100.00;101935.91;4951926;28;20137;-73
2023/03/02 04:15:41;;;;;;;16.17;6.22;;;;;;;1.75;100.00;101940.25;4950391;28;20059;-69
2023/03/02 04:18:07;;;;;;;17.52;6.32;;;;;;;1.77;100.00;101946.22;4951345;28;20055;-70
2023/03/02 04:20:34;;;;;;;13.90;6.20;;;;;;;1.76;100.00;101941.84;4950882;28;20506;-66
2023/03/02 04:23:01;;;;;;;19.00;7.00;;;;;;;1.80;100.00;101945.59;4950106;28;20498;-69
2023/03/02 04:25:28;;;;;;;17.20;6.25;;;;;;;1.81;100.00;101939.00;4950019;28;20061;-71
2023/03/02 04:27:55;;;;;;;19.52;6.60;;;;;;;1.82;100.00;101937.09;4949468;28;20136;-69
2023/03/02 04:30:24;;;;;;;19.42;6.43;;;;;;;1.81;100.00;101932.75;4949601;28;20047;-70
2023/03/02 04:32:50;;;;;;;9.90;3.75;;;;;;;1.78;100.00;101931.44;4948758;28;20078;-71
2023/03/02 04:35:17;;;;;;;15.73;6.00;;;;;;;1.81;100.00;101930.81;4954509;28;20051;-70
2023/03/02 04:37:45;;;;;;;18.23;7.78;;;;;;;1.82;100.00;101928.91;4957356;28;20055;-72
2023/03/02 04:40:14;;;;;;;17.00;6.32;;;;;;;1.81;100.00;101925.38;4956463;28;20134;-71
2023/03/02 04:42:43;;;;;;;18.17;5.85;;;;;;;1.77;100.00;101929.84;4952649;28;20077;-71
2023/03/02 04:45:10;;;;;;;20.95;7.18;;;;;;;1.79;100.00;101926.81;4943169;28;20560;-72
2023/03/02 04:47:37;;;;;;;16.48;5.60;;;;;;;1.75;100.00;101923.06;4952365;28;20059;-71
2023/03/02 04:50:04;;;;;;;13.05;6.35;;;;;;;1.77;100.00;101929.03;4961495;28;20051;-71
2023/03/02 04:52:31;;;;;;;15.52;5.95;;;;;;;1.76;100.00;101924.69;4958192;28;20398;-70
2023/03/02 04:54:57;;;;;;;14.25;4.85;;;;;;;1.73;100.00;101922.56;4963859;28;20081;-72
2023/03/02 04:57:24;;;;;;;22.95;8.10;;;;;;;1.73;100.00;101931.56;4955922;28;20047;-72
2023/03/02 04:59:50;;;;;;;18.10;7.60;;;;;;;1.69;100.00;101932.50;4946139;29;20055;-74
2023/03/02 05:02:17;;;;;;;14.45;6.35;;;;;;;1.69;100.00;101927.03;4960285;28;20055;-71
2023/03/02 05:04:43;;;;;;;18.85;7.10;;;;;;;1.73;100.00;101933.50;4959833;28;20114;-71
2023/03/02 05:07:10;;;;;;;16.63;7.40;;;;;;;1.67;100.00;101923.81;4962397;28;20051;-71
2023/03/02 05:09:36;;;;;;;13.90;6.13;;;;;;;1.75;100.00;101933.97;4956968;28;20048;-71
2023/03/02 05:12:03;;;;;;;17.73;8.38;;;;;;;1.73;100.00;101928.03;4954103;28;20054;-72
2023/03/02 05:14:30;;;;;;;18.17;7.93;;;;;;;1.71;100.00;101925.59;4961261;28;20062;-71
2023/03/02 05:16:57;;;;;;;18.58;7.55;;;;;;;1.73;100.00;101922.56;4957093;28;20054;-72
2023/03/02 05:19:24;;;;;;;18.80;7.70;;;;;;;1.70;100.00;101924.00;4957801;28;20054;-72
2023/03/02 05:21:50;;;;;;;18.98;7.80;;;;;;;1.69;100.00;101936.00;4961385;28;20051;-72
2023/03/02 05:24:17;;;;;;;19.77;8.75;;;;;;;1.64;100.00;101918.97;4955308;28;20425;-71
2023/03/02 05:26:47;;;;;;;20.48;7.47;;;;;;;1.64;100.00;101925.22;4951338;29;20062;-71
2023/03/02 05:29:14;;;;;;;18.83;7.68;;;;;;;1.63;100.00;101926.34;4952051;28;20045;-73
2023/03/02 05:31:43;;;;;;;19.95;8.48;;;;;;;1.59;100.00;101919.09;4955875;28;20552;-73
2023/03/02 05:34:12;;;;;;;18.40;7.10;;;;;;;1.56;100.00;101925.97;4956537;28;20058;-72
2023/03/02 05:36:39;;;;;;;18.17;7.65;;;;;;;1.54;100.00;101920.00;4954415;28;20061;-70
2023/03/02 05:39:07;;;;;;;15.85;6.80;;;;;;;1.54;100.00;101919.19;4955591;28;20047;-72
2023/03/02 05:41:34;;;;;;;18.92;7.47;;;;;;;1.54;100.00;101930.91;4954067;28;20051;-71
2023/03/02 05:44:01;;;;;;;20.90;7.32;;;;;;;1.53;100.00;101921.13;4953669;28;20216;-72
2023/03/02 05:46:28;;;;;;;19.35;8.30;;;;;;;1.56;100.00;101922.44;4953998;28;20059;-71
2023/03/02 05:48:54;;;;;;;20.40;6.90;;;;;;;1.51;100.00;101928.81;4953735;28;20086;-70
2023/03/02 05:51:21;;;;;;;22.15;8.77;;;;;;;1.47;100.00;101929.72;4951902;28;20062;-71
2023/03/02 05:53:50;;;;;;;25.33;7.93;;;;;;;1.45;100.00;101921.06;4960865;28;20065;-71
2023/03/02 05:56:19;;;;;;;19.05;8.90;;;;;;;1.43;100.00;101932.28;4970618;28;20070;-70
2023/03/02 05:58:46;;;;;;;21.63;9.35;;;;;;;1.34;100.00;101911.47;4961083;28;20059;-70
2023/03/02 06:01:12;;;;;;;19.38;6.75;;;;;;;1.39;100.00;101933.19;4965174;28;20046;-73
2023/03/02 06:03:42;;;;;;;19.55;7.10;;;;;;;1.36;100.00;101928.34;4955888;28;20073;-70
2023/03/02 06:06:12;;;;;;;19.33;7.65;;;;;;;1.34;100.00;101936.00;4950565;28;20533;-70
2023/03/02 06:08:40;;;;;;;22.05;8.25;;;;;;;1.35;100.00;101937.66;4957874;28;20106;-70
2023/03/02 06:11:08;;;;;;;14.63;5.57;;;;;;;1.35;100.00;101941.16;4951389;28;20063;-70
2023/03/02 06:13:36;;;;;;;21.20;8.75;;;;;;;1.32;100.00;101943.72;4962512;28;20059;-69
2023/03/02 06:16:03;;;;;;;19.02;7.28;;;;;;;1.26;100.00;101945.75;4949584;28;20047;-70
2023/03/02 06:18:30;;;;;;;18.58;7.22;;;;;;;1.29;100.00;101950.59;4952285;28;20059;-68
2023/03/02 06:20:56;;;;;;;11.45;4.88;;;;;;;1.27;100.00;101946.53;4951625;28;20052;-70
2023/03/02 06:23:23;;;;;;;18.92;8.10;;;;;;;1.27;100.00;101949.25;4953564;28;20055;-71
2023/03/02 06:25:49;;;;;;;20.85;8.38;;;;;;;1.26;100.00;101944.91;4951278;28;20058;-69
2023/03/02 06:28:18;;;;;;;15.85;7.00;;;;;;;1.31;100.00;101947.53;4952316;28;20043;-70
2023/03/02 06:30:47;;;;;;;17.75;7.18;;;;;;;1.28;100.00;101953.63;4950971;28;20523;-71
2023/03/02 06:33:23;;;;;;;24.55;9.68;;;;;;;1.27;100.00;101947.34;4953209;28;20101;-70
2023/03/02 06:35:50;;;;;;;23.67;9.60;;;;;;;1.30;100.00;101954.09;4951117;28;20054;-70
2023/03/02 06:38:19;;;;;;;25.95;10.38;;;;;;;1.31;100.00;101956.53;4952957;28;20086;-70
2023/03/02 06:40:46;;;;;;;14.63;4.45;;;;;;;1.34;100.00;101961.38;4953779;28;20522;-70
2023/03/02 06:43:13;;;;;;;16.67;6.75;;;;;;;1.36;100.00;101958.34;4951705;28;20130;-71
2023/03/02 06:45:39;;;;;;;17.35;7.63;;;;;;;1.34;100.00;101957.81;4952672;28;20498;-72
2023/03/02 06:48:06;;;;;;;17.60;6.95;;;;;;;1.35;100.00;101960.25;4948930;28;20533;-71
2023/03/02 06:50:33;;;;;;;8.38;3.63;;;;;;;1.35;100.00;101962.97;4947958;28;20506;-70
2023/03/02 06:53:01;;;;;;;16.98;7.60;;;;;;;1.41;100.00;101959.03;4945026;29;20083;-71
2023/03/02 06:55:27;;;;;;;21.08;8.18;;;;;;;1.38;100.00;101956.13;4950802;28;20425;-73
2023/03/02 06:57:54;;;;;;;17.35;7.20;;;;;;;1.45;100.00;101957.31;4950018;28;20506;-71
2023/03/02 07:00:24;;;;;;;24.83;8.82;;;;;;;1.46;100.00;101955.38;4951263;29;20577;-71
2023/03/02 07:02:51;;;;;;;21.77;7.95;;;;;;;1.52;100.00;101951.44;4949492;28;20051;-72
2023/03/02 07:05:18;;;;;;;22.73;9.15;;;;;;;1.53;100.00;101951.13;4944902;29;20057;-71
2023/03/02 07:07:45;;;;;;;22.73;7.80;;;;;;;1.57;100.00;101954.84;4950610;29;20062;-72
2023/03/02 07:10:12;;;;;;;20.88;8.75;;;;;;;1.60;100.00;101956.16;4950919;29;20050;-71
2023/03/02 07:12:40;;;;;;;22.33;8.60;;;;;;;1.65;100.00;101959.56;4950739;29;20540;-69
2023/03/02 07:15:10;;;;;;;22.30;8.77;;;;;;;1.69;100.00;101957.84;4950683;28;20047;-68
2023/03/02 07:17:38;;;;;;;19.23;6.20;;;;;;;1.73;100.00;101955.31;4951488;28;20166;-68
2023/03/02 07:20:05;;;;;;;19.70;8.30;;;;;;;1.78;100.00;101955.19;4948718;28;20057;-70
2023/03/02 07:22:40;;;;;;;15.10;6.78;;;;;;;1.82;100.00;101958.94;4950251;28;20066;-69
2023/03/02 07:25:08;;;;;;;25.25;9.93;;;;;;;1.89;100.00;101962.03;4957047;28;20047;-70
2023/03/02 07:27:36;;;;;;;23.58;9.98;;;;;;;1.89;100.00;101946.44;4954434;28;20909;-73
2023/03/02 07:30:04;;;;;;;23.70;9.63;;;;;;;1.96;100.00;101948.75;4958870;28;20049;-71
2023/03/02 07:32:30;;;;;;;20.23;8.73;;;;;;;2.00;100.00;101958.72;4953016;28;20047;-71
2023/03/02 07:34:57;;;;;;;20.73;8.05;;;;;;;2.05;100.00;101961.34;4951398;28;20051;-70
2023/03/02 07:37:23;;;;;;;21.83;9.18;;;;;;;2.09;100.00;101958.78;4965982;28;20050;-71
2023/03/02 07:39:50;;;;;;;21.88;10.10;;;;;;;2.15;100.00;101958.38;4955029;28;20505;-71
2023/03/02 07:42:17;;;;;;;18.60;8.45;;;;;;;2.23;100.00;101951.38;4950008;28;20382;-68
2023/03/02 07:44:43;;;;;;;21.15;9.52;;;;;;;2.29;100.00;101958.28;4949300;28;20087;-70
2023/03/02 07:47:10;;;;;;;23.25;10.32;;;;;;;2.35;100.00;101960.59;4958602;28;20158;-68
2023/03/02 07:49:36;;;;;;;23.10;7.68;;;;;;;2.41;100.00;101956.63;4955665;28;20047;-68
2023/03/02 07:52:03;;;;;;;19.00;7.32;;;;;;;2.48;100.00;101967.91;4952119;28;20091;-69
2023/03/02 07:54:30;;;;;;;13.57;5.40;;;;;;;2.55;100.00;101961.97;4954079;28;20511;-69
2023/03/02 07:56:57;;;;;;;13.43;6.07;;;;;;;2.60;100.00;101968.13;4955653;28;20062;-69
2023/03/02 07:59:24;;;;;;;23.65;9.65;;;;;;;2.68;100.00;101963.81;4958520;28;20047;-70
2023/03/02 08:01:51;;;;;;;17.58;8.13;;;;;;;2.74;100.00;101965.31;4952664;28;20059;-68
2023/03/02 08:04:17;;;;;;;23.70;10.32;;;;;;;2.77;100.00;101969.31;4949479;28;20078;-69
2023/03/02 08:06:44;;;;;;;20.15;9.38;;;;;;;2.84;100.00;101970.50;4955369;28;20558;-69
2023/03/02 08:09:10;;;;;;;24.73;11.02;;;;;;;2.88;100.00;101976.94;4948819;28;20576;-71
2023/03/02 08:11:37;;;;;;;19.95;8.13;;;;;;;2.92;100.00;101972.44;4952062;28;20051;-69
2023/03/02 08:14:03;;;;;;;23.90;10.77;;;;;;;3.01;100.00;101970.56;4953079;28;20049;-69
2023/03/02 08:16:30;;;;;;;25.42;10.68;;;;;;;3.06;100.00;101972.31;4954408;28;20055;-69
2023/03/02 08:18:56;;;;;;;29.17;9.48;;;;;;;3.14;100.00;101980.56;4949506;28;20130;-70
2023/03/02 08:21:26;;;;;;;16.05;7.35;;;;;;;3.20;100.00;101970.31;4956488;28;20129;-69
2023/03/02 08:23:52;;;;;;;27.98;10.40;;;;;;;3.30;100.00;101970.78;4953583;28;20050;-70
2023/03/02 08:26:19;;;;;;;27.80;10.60;;;;;;;3.39;100.00;101977.09;4950281;28;20131;-69
2023/03/02 08:28:46;;;;;;;23.52;9.43;;;;;;;3.43;100.00;101958.91;4952722;28;20057;-69
2023/03/02 08:31:13;;;;;;;16.40;6.18;;;;;;;3.49;100.00;101965.84;4953442;28;20530;-70
2023/03/02 08:33:39;;;;;;;21.52;9.05;;;;;;;3.54;100.00;101968.41;4957413;28;20059;-70
2023/03/02 08:36:10;;;;;;;23.25;10.32;;;;;;;3.54;100.00;101956.69;4952931;28;20419;-70
2023/03/02 08:38:37;;;;;;;28.30;10.77;;;;;;;3.61;100.00;101955.06;4952900;28;20054;-70
2023/03/02 08:41:09;;;;;;;22.10;9.98;;;;;;;3.70;100.00;101966.84;4948501;28;20054;-68
2023/03/02 08:43:36;;;;;;;23.20;9.25;;;;;;;3.76;100.00;101962.81;4945902;28;20131;-70
2023/03/02 08:46:02;;;;;;;22.20;9.45;;;;;;;3.79;100.00;101964.09;4947728;28;20512;-70
2023/03/02 08:48:30;;;;;;;19.40;9.18;;;;;;;3.83;100.00;101971.34;4952737;28;20063;-71
2023/03/02 08:51:01;;;;;;;23.00;10.48;;;;;;;3.95;100.00;101971.50;4952523;28;20047;-70
2023/03/02 08:53:32;;;;;;;20.27;8.57;;;;;;;4.07;100.00;101960.72;4950407;28;20421;-69
2023/03/02 08:55:59;;;;;;;19.88;8.18;;;;;;;4.17;100.00;101949.44;4949847;28;20055;-70
2023/03/02 08:58:26;;;;;;;31.80;11.50;;;;;;;4.25;100.00;101961.50;4951600;28;20525;-70
2023/03/02 09:00:52;;;;;;;24.30;10.43;;;;;;;4.38;100.00;101955.81;4952754;28;20047;-70
2023/03/02 09:03:19;;;;;;;25.48;10.23;;;;;;;4.47;100.00;101950.31;4947306;28;20098;-70
2023/03/02 09:05:46;;;;;;;24.10;9.25;;;;;;;4.55;100.00;101950.31;4945488;28;20061;-70
2023/03/02 09:08:13;;;;;;;13.80;5.22;;;;;;;4.62;100.00;101944.31;4944579;28;20839;-70
2023/03/02 09:10:39;;;;;;;23.83;8.85;;;;;;;4.70;100.00;101951.72;4944305;28;20074;-72
2023/03/02 09:13:06;;;;;;;22.88;8.82;;;;;;;4.75;100.00;101957.81;4940488;28;21688;-70
2023/03/02 09:15:34;;;;;;;25.73;10.80;;;;;;;4.87;100.00;101949.69;4942262;28;20050;-71
2023/03/02 09:18:01;;;;;;;22.65;8.45;;;;;;;4.94;100.00;101949.19;4940843;28;20066;-70
2023/03/02 09:20:27;;;;;;;21.20;9.05;;;;;;;5.07;100.00;101951.69;4943884;28;20142;-69
2023/03/02 09:22:54;;;;;;;20.27;7.75;;;;;;;5.14;100.00;101951.19;4924847;28;20054;-69
2023/03/02 09:25:20;;;;;;;19.42;8.98;;;;;;;5.24;100.00;101948.84;4951003;28;20053;-71
2023/03/02 09:27:47;;;;;;;22.60;8.77;;;;;;;5.33;99.27;101944.13;4949051;28;20058;-70
2023/03/02 09:30:14;;;;;;;23.20;9.27;;;;;;;5.43;99.26;101943.75;4947758;28;20043;-70
2023/03/02 09:32:41;;;;;;;24.38;9.35;;;;;;;5.56;99.03;101941.09;4945684;28;20051;-71
2023/03/02 09:35:08;;;;;;;16.65;6.70;;;;;;;5.71;97.97;101948.72;4946024;28;20054;-68
2023/03/02 09:37:37;;;;;;;20.40;8.18;;;;;;;5.77;94.52;101939.13;4943576;28;20700;-70
2023/03/02 09:40:14;;;;;;;15.35;6.40;;;;;;;5.85;94.73;101932.78;4945261;28;20055;-68
2023/03/02 09:43:01;;;;;;;22.80;9.15;;;;;;;5.96;92.70;101933.97;4947248;28;20506;-72
2023/03/02 09:45:31;;;;;;;18.60;7.53;;;;;;;6.11;92.05;101939.66;4951123;28;20067;-67
2023/03/02 09:48:17;;;;;;;19.20;7.93;;;;;;;6.18;88.29;101933.63;4948974;28;20106;-70
2023/03/02 09:50:55;;;;;;;20.02;8.88;;;;;;;6.32;86.64;101936.88;4949229;28;20043;-69
2023/03/02 09:53:40;;;;;;;22.83;8.95;;;;;;;6.43;87.47;101938.03;4946677;28;20051;-71
2023/03/02 09:56:16;;;;;;;16.92;7.45;;;;;;;6.58;88.12;101940.94;4949634;28;20054;-67
2023/03/02 09:58:50;;;;;;;10.68;3.72;;;;;;;6.75;85.26;101937.19;4949906;28;20055;-69
2023/03/02 10:01:31;;;;;;;20.20;8.63;;;;;;;6.87;81.39;101926.19;4947479;28;20043;-72
2023/03/02 10:04:10;;;;;;;19.23;7.55;;;;;;;7.02;82.44;101939.28;4945663;28;20047;-70
2023/03/02 10:06:36;;;;;;;20.42;9.05;;;;;;;7.04;79.20;101935.03;4954834;28;20110;-68
2023/03/02 10:09:03;;;;;;;17.90;6.93;;;;;;;7.20;79.72;101932.41;4943735;28;20556;-69
2023/03/02 10:12:00;;;;;;;18.38;7.70;;;;;;;7.29;77.87;101927.56;4948970;28;20051;-70
2023/03/02 10:14:34;;;;;;;16.70;7.75;;;;;;;7.41;77.69;101944.88;4946651;28;20051;-70
2023/03/02 10:17:34;;;;;;;20.33;7.75;;;;;;;7.57;77.63;101943.00;4947485;28;20062;-70
2023/03/02 10:20:20;;;;;;;20.35;8.57;;;;;;;7.73;76.57;101934.84;4949757;28;20047;-69
2023/03/02 10:22:51;;;;;;;22.75;9.32;;;;;;;7.85;75.18;101932.03;4949436;28;20478;-69
2023/03/02 10:25:40;;;;;;;17.58;7.00;;;;;;;8.08;75.79;101944.13;4948340;28;20055;-71
2023/03/02 10:28:13;;;;;;;19.08;7.85;;;;;;;8.22;70.46;101927.19;4948620;28;20062;-69
2023/03/02 10:30:40;;;;;;;16.75;7.72;;;;;;;8.32;67.92;101923.91;4948149;28;20152;-72
2023/03/02 10:33:19;;;;;;;18.65;7.60;;;;;;;8.45;67.91;101931.78;4948791;28;20517;-70
2023/03/02 10:35:49;;;;;;;17.92;6.80;;;;;;;8.43;66.30;101920.28;4958625;28;20154;-71
2023/03/02 10:38:21;;;;;;;15.38;6.80;;;;;;;8.54;67.74;101924.13;4947214;28;20058;-70
2023/03/02 10:40:58;;;;;;;19.30;8.63;;;;;;;8.73;67.83;101929.75;4953578;28;20520;-72
2023/03/02 10:43:28;;;;;;;13.60;5.05;;;;;;;8.86;65.81;101927.69;4959084;28;20132;-69
2023/03/02 10:46:03;;;;;;;18.02;6.68;;;;;;;8.87;60.91;101927.34;4960086;28;20062;-69
2023/03/02 10:48:30;;;;;;;20.05;8.50;;;;;;;8.94;62.70;101930.28;4954108;28;20067;-69
2023/03/02 10:50:59;;;;;;;21.33;7.47;;;;;;;9.01;60.98;101929.69;4960821;28;20425;-68
2023/03/02 10:53:25;;;;;;;15.35;7.10;;;;;;;9.08;59.61;101914.06;4953632;28;20129;-71
2023/03/02 10:55:52;;;;;;;19.88;7.38;;;;;;;9.29;60.14;101919.28;4951920;28;20051;-69
2023/03/02 10:58:31;;;;;;;15.38;7.03;;;;;;;9.36;57.89;101914.75;4955930;28;20310;-71
2023/03/02 11:01:03;;;;;;;19.67;7.82;;;;;;;9.45;57.03;101925.59;4955966;28;20069;-70
2023/03/02 11:03:31;;;;;;;8.90;4.20;;;;;;;9.43;56.05;101917.66;4957868;28;20062;-71
2023/03/02 11:06:10;;;;;;;19.55;8.00;;;;;;;9.66;56.47;101910.25;4955732;28;20090;-67
2023/03/02 11:08:37;;;;;;;8.75;4.00;;;;;;;9.90;56.24;101906.44;4959478;28;20506;-69
2023/03/02 11:11:03;;;;;;;15.25;6.22;;;;;;;10.08;55.66;101910.38;4948017;28;20051;-70
2023/03/02 11:13:37;;;;;;;10.82;4.57;;;;;;;10.36;53.87;101900.66;4952991;28;20142;-69
2023/03/02 11:16:29;;;;;;;6.97;3.50;;;;;;;10.57;52.01;101912.09;4947925;28;20133;-70
2023/03/02 11:19:16;;;;;;;14.65;6.93;;;;;;;10.70;51.41;101914.69;4953123;28;20085;-71
2023/03/02 11:21:52;;;;;;;15.32;6.55;;;;;;;10.96;50.72;101906.41;4953166;28;20135;-68
2023/03/02 11:24:34;;;;;;;8.10;3.90;;;;;;;11.25;50.15;101898.19;4954300;28;20047;-71
2023/03/02 11:27:21;;;;;;;17.80;7.00;;;;;;;11.39;49.91;101908.66;4950427;28;20051;-70
2023/03/02 11:29:56;;;;;;;16.90;6.22;;;;;;;11.42;48.48;101907.91;4950131;28;20398;-68